createdAt,value
2016-08-24T00:00:56.792Z,0
2016-08-24T00:01:56.801Z,0
2016-08-24T00:02:56.768Z,0
2016-08-24T00:03:56.769Z,0
2016-08-24T00:04:56.760Z,0
2016-08-24T00:05:56.776Z,0
2016-08-24T00:06:56.805Z,0
2016-08-24T00:07:56.789Z,0
2016-08-24T00:08:56.735Z,0
2016-08-24T00:09:56.793Z,0
2016-08-24T00:10:56.779Z,0
2016-08-24T00:11:56.750Z,0
2016-08-24T00:12:57.416Z,0
2016-08-24T00:13:56.748Z,0
2016-08-24T00:14:56.772Z,0
2016-08-24T00:15:56.807Z,0
2016-08-24T00:16:56.772Z,0
2016-08-24T00:17:56.825Z,0
2016-08-24T00:18:56.774Z,0
2016-08-24T00:19:56.778Z,0
2016-08-24T00:20:56.791Z,0
2016-08-24T00:21:56.776Z,0
2016-08-24T00:22:56.815Z,0
2016-08-24T00:23:56.787Z,0
2016-08-24T00:24:56.783Z,0
2016-08-24T00:25:56.779Z,0
2016-08-24T00:26:56.810Z,0
2016-08-24T00:27:56.821Z,0
2016-08-24T00:28:56.762Z,0
2016-08-24T00:29:56.801Z,0
2016-08-24T00:30:56.783Z,0
2016-08-24T00:31:56.791Z,0
2016-08-24T00:32:56.795Z,0
2016-08-24T00:33:56.790Z,0
2016-08-24T00:34:56.794Z,0
2016-08-24T00:35:56.777Z,0
2016-08-24T00:36:56.784Z,0
2016-08-24T00:37:56.777Z,0
2016-08-24T00:38:56.781Z,0
2016-08-24T00:39:56.763Z,0
2016-08-24T00:40:56.811Z,0
2016-08-24T00:41:56.788Z,0
2016-08-24T00:42:56.797Z,0
2016-08-24T00:43:56.776Z,0
2016-08-24T00:44:56.783Z,0
2016-08-24T00:45:56.825Z,0
2016-08-24T00:46:56.788Z,0
2016-08-24T00:47:56.813Z,0
2016-08-24T00:48:56.819Z,0
2016-08-24T00:49:56.798Z,0
2016-08-24T00:50:56.808Z,0
2016-08-24T00:51:57.095Z,0
2016-08-24T00:52:56.796Z,0
2016-08-24T00:53:56.796Z,0
2016-08-24T00:54:56.806Z,0
2016-08-24T00:55:56.797Z,0
2016-08-24T00:56:56.853Z,0
2016-08-24T00:57:56.812Z,0
2016-08-24T00:58:56.843Z,0
2016-08-24T00:59:56.779Z,0
2016-08-24T01:00:56.815Z,0
2016-08-24T01:01:56.831Z,0
2016-08-24T01:02:56.842Z,0
2016-08-24T01:03:57.157Z,0
2016-08-24T01:04:56.808Z,0
2016-08-24T01:05:56.807Z,0
2016-08-24T01:06:56.872Z,0
2016-08-24T01:07:56.811Z,0
2016-08-24T01:08:56.813Z,0
2016-08-24T01:09:56.853Z,0
2016-08-24T01:10:56.808Z,0
2016-08-24T01:11:56.818Z,0
2016-08-24T01:12:56.930Z,0
2016-08-24T01:13:56.809Z,0
2016-08-24T01:14:56.854Z,0
2016-08-24T01:15:56.853Z,0
2016-08-24T01:16:56.812Z,0
2016-08-24T01:17:56.846Z,0
2016-08-24T01:18:57.803Z,0
2016-08-24T01:19:56.824Z,0
2016-08-24T01:20:56.841Z,0
2016-08-24T01:21:56.869Z,0
2016-08-24T01:22:56.853Z,0
2016-08-24T01:23:56.874Z,0
2016-08-24T01:24:57.052Z,0
2016-08-24T01:25:56.875Z,0
2016-08-24T01:26:56.848Z,0
2016-08-24T01:27:57.080Z,0
2016-08-24T01:28:56.827Z,0
2016-08-24T01:29:56.839Z,0
2016-08-24T01:30:56.875Z,0
2016-08-24T01:31:56.884Z,0
2016-08-24T01:32:56.842Z,0
2016-08-24T01:33:58.209Z,0
2016-08-24T01:34:56.843Z,0
2016-08-24T01:35:56.800Z,0
2016-08-24T01:36:56.893Z,0
2016-08-24T01:37:56.850Z,0
2016-08-24T01:38:56.825Z,0
2016-08-24T01:39:57.096Z,0
2016-08-24T01:40:56.860Z,0
2016-08-24T01:41:56.861Z,0
2016-08-24T01:42:57.084Z,0
2016-08-24T01:43:56.872Z,0
2016-08-24T01:44:56.901Z,0
2016-08-24T01:45:57.809Z,0
2016-08-24T01:46:56.854Z,0
2016-08-24T01:47:56.845Z,0
2016-08-24T01:48:56.901Z,0
2016-08-24T01:49:56.873Z,0
2016-08-24T01:50:56.884Z,0
2016-08-24T01:51:57.737Z,0
2016-08-24T01:52:56.864Z,0
2016-08-24T01:53:56.827Z,0
2016-08-24T01:54:56.923Z,0
2016-08-24T01:55:56.888Z,0
2016-08-24T01:56:56.887Z,0
2016-08-24T01:57:56.847Z,0
2016-08-24T01:58:56.953Z,0
2016-08-24T01:59:56.874Z,0
2016-08-24T02:00:56.902Z,0
2016-08-24T02:01:56.871Z,0
2016-08-24T02:02:56.878Z,0
2016-08-24T02:03:58.360Z,0
2016-08-24T02:04:56.923Z,0
2016-08-24T02:05:56.886Z,0
2016-08-24T02:06:56.873Z,0
2016-08-24T02:07:56.890Z,0
2016-08-24T02:08:56.890Z,0
2016-08-24T02:09:57.194Z,0
2016-08-24T02:10:56.922Z,0
2016-08-24T02:11:56.891Z,0
2016-08-24T02:12:56.868Z,0
2016-08-24T02:13:56.885Z,0
2016-08-24T02:14:56.875Z,0
2016-08-24T02:15:56.904Z,0
2016-08-24T02:16:56.873Z,0
2016-08-24T02:17:56.851Z,0
2016-08-24T02:18:56.868Z,0
2016-08-24T02:19:56.874Z,0
2016-08-24T02:20:56.887Z,0
2016-08-24T02:21:56.903Z,0
2016-08-24T02:22:56.888Z,0
2016-08-24T02:23:56.898Z,0
2016-08-24T02:24:57.047Z,0
2016-08-24T02:25:56.873Z,0
2016-08-24T02:26:56.887Z,0
2016-08-24T02:27:56.906Z,0
2016-08-24T02:28:56.885Z,0
2016-08-24T02:29:56.877Z,0
2016-08-24T02:30:56.883Z,0
2016-08-24T02:31:56.874Z,0
2016-08-24T02:32:56.970Z,0
2016-08-24T02:33:56.904Z,0
2016-08-24T02:34:56.906Z,0
2016-08-24T02:35:56.901Z,0
2016-08-24T02:36:56.969Z,0
2016-08-24T02:37:56.887Z,0
2016-08-24T02:38:56.967Z,0
2016-08-24T02:39:57.396Z,0
2016-08-24T02:40:56.935Z,0
2016-08-24T02:41:57.059Z,0
2016-08-24T02:42:57.044Z,0
2016-08-24T02:43:56.886Z,0
2016-08-24T02:44:57.007Z,0
2016-08-24T02:45:56.933Z,0
2016-08-24T02:46:56.946Z,0
2016-08-24T02:47:56.988Z,0
2016-08-24T02:48:57.670Z,0
2016-08-24T02:49:56.987Z,0
2016-08-24T02:50:56.935Z,0
2016-08-24T02:51:56.956Z,0
2016-08-24T02:52:56.963Z,0
2016-08-24T02:53:56.950Z,0
2016-08-24T02:54:56.945Z,0
2016-08-24T02:55:56.965Z,0
2016-08-24T02:56:56.919Z,0
2016-08-24T02:57:56.923Z,0
2016-08-24T02:58:56.986Z,0
2016-08-24T02:59:56.936Z,0
2016-08-24T03:00:58.060Z,0
2016-08-24T03:01:56.918Z,0
2016-08-24T03:02:56.939Z,0
2016-08-24T03:03:57.356Z,0
2016-08-24T03:04:56.908Z,0
2016-08-24T03:05:57.471Z,0
2016-08-24T03:06:57.098Z,0
2016-08-24T03:07:56.973Z,0
2016-08-24T03:08:56.933Z,0
2016-08-24T03:09:57.074Z,0
2016-08-24T03:10:56.949Z,0
2016-08-24T03:11:56.930Z,0
2016-08-24T03:12:56.990Z,0
2016-08-24T03:13:56.941Z,0
2016-08-24T03:14:56.944Z,0
2016-08-24T03:15:57.117Z,0
2016-08-24T03:16:56.890Z,0
2016-08-24T03:17:56.924Z,0
2016-08-24T03:18:56.904Z,0
2016-08-24T03:19:56.983Z,0
2016-08-24T03:20:56.925Z,0
2016-08-24T03:21:56.934Z,0
2016-08-24T03:22:56.981Z,0
2016-08-24T03:23:56.908Z,0
2016-08-24T03:24:56.926Z,0
2016-08-24T03:25:56.935Z,0
2016-08-24T03:26:56.954Z,0
2016-08-24T03:27:56.935Z,0
2016-08-24T03:28:57.092Z,0
2016-08-24T03:29:56.930Z,0
2016-08-24T03:30:56.939Z,0
2016-08-24T03:31:56.946Z,0
2016-08-24T03:32:56.955Z,0
2016-08-24T03:33:56.974Z,0
2016-08-24T03:34:56.938Z,0
2016-08-24T03:35:56.957Z,0
2016-08-24T03:36:56.938Z,0
2016-08-24T03:37:56.921Z,0
2016-08-24T03:38:57.009Z,0
2016-08-24T03:39:56.937Z,0
2016-08-24T03:40:57.013Z,0
2016-08-24T03:41:56.977Z,0
2016-08-24T03:42:56.936Z,0
2016-08-24T03:43:57.004Z,0
2016-08-24T03:44:56.938Z,0
2016-08-24T03:45:56.957Z,0
2016-08-24T03:46:56.952Z,0
2016-08-24T03:47:56.941Z,0
2016-08-24T03:48:56.950Z,0
2016-08-24T03:49:56.952Z,0
2016-08-24T03:50:56.997Z,0
2016-08-24T03:51:56.951Z,0
2016-08-24T03:52:56.945Z,0
2016-08-24T03:53:56.937Z,0
2016-08-24T03:54:56.941Z,0
2016-08-24T03:55:56.935Z,0
2016-08-24T03:56:56.986Z,0
2016-08-24T03:57:57.024Z,0
2016-08-24T03:58:56.987Z,0
2016-08-24T03:59:57.020Z,0
2016-08-24T04:00:56.954Z,0
2016-08-24T04:01:57.006Z,0
2016-08-24T04:02:56.955Z,0
2016-08-24T04:03:56.999Z,0
2016-08-24T04:04:56.981Z,0
2016-08-24T04:05:56.971Z,0
2016-08-24T04:06:56.963Z,0
2016-08-24T04:07:56.971Z,0
2016-08-24T04:08:57.024Z,0
2016-08-24T04:09:56.983Z,0
2016-08-24T04:10:56.995Z,0
2016-08-24T04:11:57.016Z,0
2016-08-24T04:12:57.018Z,0
2016-08-24T04:13:56.973Z,0
2016-08-24T04:14:57.048Z,0
2016-08-24T04:15:57.015Z,0
2016-08-24T04:16:57.000Z,0
2016-08-24T04:17:57.038Z,0
2016-08-24T04:18:56.983Z,0
2016-08-24T04:19:57.031Z,0
2016-08-24T04:20:57.044Z,0
2016-08-24T04:21:57.107Z,5
2016-08-24T04:22:57.020Z,5
2016-08-24T04:23:57.019Z,5
2016-08-24T04:24:56.967Z,5
2016-08-24T04:25:57.005Z,5
2016-08-24T04:26:57.032Z,5
2016-08-24T04:27:56.968Z,5
2016-08-24T04:28:57.113Z,5
2016-08-24T04:29:56.982Z,10
2016-08-24T04:30:57.083Z,10
2016-08-24T04:31:57.013Z,10
2016-08-24T04:32:57.004Z,10
2016-08-24T04:33:56.997Z,10
2016-08-24T04:34:57.005Z,15
2016-08-24T04:35:57.030Z,15
2016-08-24T04:36:57.130Z,15
2016-08-24T04:37:57.053Z,15
2016-08-24T04:38:57.018Z,15
2016-08-24T04:39:57.006Z,20
2016-08-24T04:40:57.061Z,20
2016-08-24T04:41:57.061Z,20
2016-08-24T04:44:00.126Z,20
2016-08-24T04:45:24.262Z,25
2016-08-24T04:46:47.464Z,25
2016-08-24T04:48:12.036Z,25
2016-08-24T04:49:33.773Z,30
2016-08-24T04:50:57.384Z,30
2016-08-24T04:52:19.339Z,30
2016-08-24T04:53:41.959Z,35
2016-08-24T04:55:03.244Z,35
2016-08-24T04:56:25.723Z,35
2016-08-24T04:57:43.784Z,35
2016-08-24T04:57:59.722Z,40
2016-08-24T04:58:59.738Z,40
2016-08-24T04:59:59.687Z,40
2016-08-24T05:00:59.767Z,40
2016-08-24T05:02:00.181Z,40
2016-08-24T05:02:59.705Z,45
2016-08-24T05:03:59.689Z,45
2016-08-24T05:04:59.749Z,45
2016-08-24T05:05:59.733Z,45
2016-08-24T05:06:59.721Z,50
2016-08-24T05:07:59.717Z,50
2016-08-24T05:08:59.749Z,50
2016-08-24T05:09:59.765Z,50
2016-08-24T05:10:59.736Z,50
2016-08-24T05:11:59.785Z,55
2016-08-24T05:12:59.715Z,55
2016-08-24T05:13:59.730Z,55
2016-08-24T05:14:59.716Z,55
2016-08-24T05:15:59.811Z,55
2016-08-24T05:16:59.779Z,60
2016-08-24T05:17:59.716Z,60
2016-08-24T05:18:59.733Z,60
2016-08-24T05:19:59.701Z,60
2016-08-24T05:20:59.709Z,60
2016-08-24T05:21:59.765Z,65
2016-08-24T05:22:59.717Z,65
2016-08-24T05:24:00.364Z,65
2016-08-24T05:24:59.732Z,65
2016-08-24T05:25:59.732Z,65
2016-08-24T05:26:59.735Z,70
2016-08-24T05:27:59.719Z,70
2016-08-24T05:28:59.800Z,70
2016-08-24T05:29:59.735Z,70
2016-08-24T05:30:59.808Z,70
2016-08-24T05:31:59.734Z,70
2016-08-24T05:32:59.735Z,75
2016-08-24T05:33:59.717Z,75
2016-08-24T05:36:01.995Z,75
2016-08-24T05:37:25.645Z,75
2016-08-24T05:38:49.228Z,80
2016-08-24T05:40:12.871Z,80
2016-08-24T05:41:36.249Z,80
2016-08-24T05:42:58.909Z,80
2016-08-24T05:44:21.120Z,85
2016-08-24T05:45:43.415Z,85
2016-08-24T05:47:07.427Z,85
2016-08-24T05:48:29.168Z,85
2016-08-24T05:49:37.552Z,85
2016-08-24T05:49:50.795Z,85
2016-08-24T05:50:50.813Z,90
2016-08-24T05:51:50.802Z,90
2016-08-24T05:52:50.840Z,90
2016-08-24T05:53:50.829Z,90
2016-08-24T05:54:50.848Z,90
2016-08-24T05:55:50.802Z,90
2016-08-24T05:56:50.810Z,90
2016-08-24T05:57:50.807Z,95
2016-08-24T05:58:50.809Z,95
2016-08-24T05:59:50.957Z,95
2016-08-24T06:00:50.801Z,95
2016-08-24T06:01:50.942Z,95
2016-08-24T06:02:51.052Z,95
2016-08-24T06:03:50.879Z,95
2016-08-24T06:04:50.857Z,95
2016-08-24T06:05:50.810Z,100
2016-08-24T06:06:51.698Z,100
2016-08-24T06:07:50.795Z,100
2016-08-24T06:08:50.783Z,100
2016-08-24T06:09:50.838Z,100
2016-08-24T06:10:50.811Z,100
2016-08-24T06:11:50.831Z,100
2016-08-24T06:12:51.037Z,100
2016-08-24T06:13:50.831Z,100
2016-08-24T06:14:50.825Z,100
2016-08-24T06:15:50.839Z,105
2016-08-24T06:16:50.915Z,105
2016-08-24T06:17:50.930Z,105
2016-08-24T06:18:50.827Z,105
2016-08-24T06:19:50.795Z,105
2016-08-24T06:20:51.326Z,105
2016-08-24T06:21:50.850Z,105
2016-08-24T06:22:50.828Z,105
2016-08-24T06:23:50.838Z,105
2016-08-24T06:24:50.813Z,110
2016-08-24T06:25:50.817Z,110
2016-08-24T06:26:51.560Z,110
2016-08-24T06:27:50.834Z,110
2016-08-24T06:28:50.882Z,110
2016-08-24T06:29:50.853Z,110
2016-08-24T06:30:50.823Z,110
2016-08-24T06:31:50.834Z,110
2016-08-24T06:32:50.889Z,110
2016-08-24T06:33:50.894Z,110
2016-08-24T06:34:50.942Z,110
2016-08-24T06:35:50.873Z,110
2016-08-24T06:36:50.875Z,110
2016-08-24T06:37:50.814Z,110
2016-08-24T06:38:50.859Z,110
2016-08-24T06:39:50.848Z,110
2016-08-24T06:40:50.850Z,110
2016-08-24T06:41:50.938Z,110
2016-08-24T06:42:50.839Z,110
2016-08-24T06:43:50.846Z,110
2016-08-24T06:44:50.861Z,110
2016-08-24T06:45:50.843Z,110
2016-08-24T06:46:50.857Z,110
2016-08-24T06:47:51.009Z,115
2016-08-24T06:48:51.052Z,115
2016-08-24T06:49:50.890Z,115
2016-08-24T06:50:50.866Z,115
2016-08-24T06:51:50.869Z,115
2016-08-24T06:52:50.928Z,115
2016-08-24T06:53:50.905Z,115
2016-08-24T06:54:50.932Z,115
2016-08-24T06:55:50.923Z,115
2016-08-24T06:56:50.965Z,115
2016-08-24T06:57:50.957Z,115
2016-08-24T06:58:50.920Z,115
2016-08-24T06:59:50.962Z,120
2016-08-24T07:00:50.936Z,115
2016-08-24T07:01:51.489Z,120
2016-08-24T07:02:50.971Z,115
2016-08-24T07:03:51.042Z,115
2016-08-24T07:04:51.043Z,120
2016-08-24T07:05:50.909Z,120
2016-08-24T07:06:50.968Z,120
2016-08-24T07:07:51.121Z,120
2016-08-24T07:08:50.864Z,120
2016-08-24T07:09:50.842Z,120
2016-08-24T07:10:50.857Z,120
2016-08-24T07:11:50.900Z,120
2016-08-24T07:12:50.876Z,120
2016-08-24T07:13:50.890Z,120
2016-08-24T07:14:50.859Z,120
2016-08-24T07:15:50.911Z,120
2016-08-24T07:16:50.858Z,120
2016-08-24T07:17:50.923Z,120
2016-08-24T07:18:50.900Z,125
2016-08-24T07:19:50.878Z,125
2016-08-24T07:20:50.890Z,125
2016-08-24T07:21:50.876Z,125
2016-08-24T07:22:50.947Z,125
2016-08-24T07:23:50.896Z,125
2016-08-24T07:24:50.883Z,125
2016-08-24T07:25:50.903Z,125
2016-08-24T07:26:50.915Z,125
2016-08-24T07:27:50.873Z,130
2016-08-24T07:28:50.909Z,130
2016-08-24T07:29:51.025Z,130
2016-08-24T07:30:50.994Z,130
2016-08-24T07:31:50.952Z,130
2016-08-24T07:32:51.105Z,130
2016-08-24T07:33:51.074Z,130
2016-08-24T07:34:51.032Z,130
2016-08-24T07:35:50.921Z,130
2016-08-24T07:36:50.892Z,130
2016-08-24T07:37:50.904Z,135
2016-08-24T07:38:50.905Z,135
2016-08-24T07:39:50.983Z,135
2016-08-24T07:40:50.985Z,130
2016-08-24T07:41:50.981Z,130
2016-08-24T07:42:50.922Z,130
2016-08-24T07:43:51.039Z,130
2016-08-24T07:44:51.005Z,130
2016-08-24T07:45:50.995Z,130
2016-08-24T07:46:51.587Z,130
2016-08-24T07:47:51.002Z,130
2016-08-24T07:48:50.952Z,130
2016-08-24T07:49:50.922Z,135
2016-08-24T07:50:50.911Z,135
2016-08-24T07:51:50.952Z,135
2016-08-24T07:52:51.014Z,135
2016-08-24T07:53:50.968Z,135
2016-08-24T07:54:50.902Z,135
2016-08-24T07:55:50.943Z,135
2016-08-24T07:56:50.970Z,135
2016-08-24T07:57:50.909Z,135
2016-08-24T07:58:50.957Z,135
2016-08-24T07:59:50.921Z,135
2016-08-24T08:00:50.943Z,135
2016-08-24T08:01:50.907Z,135
2016-08-24T08:02:51.012Z,135
2016-08-24T08:03:51.543Z,135
2016-08-24T08:04:50.983Z,135
2016-08-24T08:05:50.938Z,135
2016-08-24T08:06:50.983Z,135
2016-08-24T08:07:50.923Z,135
2016-08-24T08:08:50.967Z,135
2016-08-24T08:09:50.922Z,135
2016-08-24T08:10:50.981Z,135
2016-08-24T08:11:51.032Z,135
2016-08-24T08:12:50.933Z,135
2016-08-24T08:13:50.953Z,135
2016-08-24T08:14:50.924Z,135
2016-08-24T08:15:51.014Z,135
2016-08-24T08:16:50.927Z,135
2016-08-24T08:17:51.012Z,135
2016-08-24T08:18:50.967Z,135
2016-08-24T08:19:50.969Z,135
2016-08-24T08:20:50.984Z,135
2016-08-24T08:21:51.013Z,135
2016-08-24T08:22:51.154Z,135
2016-08-24T08:23:50.987Z,135
2016-08-24T08:24:51.452Z,135
2016-08-24T08:25:50.972Z,135
2016-08-24T08:26:51.029Z,135
2016-08-24T08:27:51.184Z,135
2016-08-24T08:28:50.961Z,135
2016-08-24T08:29:50.954Z,135
2016-08-24T08:30:50.975Z,135
2016-08-24T08:31:50.939Z,135
2016-08-24T08:32:51.061Z,135
2016-08-24T08:33:51.085Z,135
2016-08-24T08:34:51.105Z,135
2016-08-24T08:35:51.097Z,135
2016-08-24T08:36:50.962Z,135
2016-08-24T08:37:50.994Z,135
2016-08-24T08:38:51.001Z,135
2016-08-24T08:39:50.965Z,135
2016-08-24T08:40:50.988Z,130
2016-08-24T08:41:51.029Z,130
2016-08-24T08:42:51.036Z,130
2016-08-24T08:43:51.024Z,130
2016-08-24T08:44:51.056Z,130
2016-08-24T08:45:51.015Z,125
2016-08-24T08:46:50.990Z,125
2016-08-24T08:47:51.014Z,125
2016-08-24T08:48:50.975Z,130
2016-08-24T08:49:51.009Z,135
2016-08-24T08:50:50.995Z,130
2016-08-24T08:51:51.024Z,130
2016-08-24T08:52:51.072Z,130
2016-08-24T08:53:51.005Z,130
2016-08-24T08:54:51.024Z,130
2016-08-24T08:55:50.993Z,130
2016-08-24T08:56:50.969Z,130
2016-08-24T08:57:51.004Z,130
2016-08-24T08:58:51.018Z,130
2016-08-24T08:59:50.971Z,130
2016-08-24T09:00:50.991Z,130
2016-08-24T09:01:51.033Z,130
2016-08-24T09:02:51.126Z,130
2016-08-24T09:03:50.987Z,130
2016-08-24T09:04:51.022Z,130
2016-08-24T09:05:51.077Z,130
2016-08-24T09:06:50.975Z,130
2016-08-24T09:07:51.024Z,130
2016-08-24T09:08:50.987Z,125
2016-08-24T09:09:51.006Z,125
2016-08-24T09:10:50.982Z,125
2016-08-24T09:11:51.007Z,130
2016-08-24T09:12:50.988Z,130
2016-08-24T09:13:51.016Z,130
2016-08-24T09:14:51.010Z,125
2016-08-24T09:15:51.031Z,130
2016-08-24T09:16:51.013Z,130
2016-08-24T09:17:50.988Z,130
2016-08-24T09:18:51.061Z,130
2016-08-24T09:19:51.002Z,130
2016-08-24T09:20:51.043Z,130
2016-08-24T09:21:51.017Z,130
2016-08-24T09:22:51.100Z,130
2016-08-24T09:23:51.029Z,130
2016-08-24T09:24:51.007Z,130
2016-08-24T09:25:51.021Z,130
2016-08-24T09:26:51.005Z,130
2016-08-24T09:27:51.048Z,130
2016-08-24T09:28:51.033Z,130
2016-08-24T09:29:51.030Z,130
2016-08-24T09:30:51.062Z,130
2016-08-24T09:31:51.054Z,130
2016-08-24T09:32:51.040Z,130
2016-08-24T09:33:51.052Z,130
2016-08-24T09:34:51.110Z,130
2016-08-24T09:35:51.051Z,130
2016-08-24T09:36:51.063Z,130
2016-08-24T09:37:51.036Z,130
2016-08-24T09:38:51.081Z,130
2016-08-24T09:39:51.082Z,130
2016-08-24T09:40:51.043Z,130
2016-08-24T09:41:51.098Z,130
2016-08-24T09:42:51.154Z,130
2016-08-24T09:43:51.165Z,130
2016-08-24T09:44:51.115Z,130
2016-08-24T09:45:51.038Z,130
2016-08-24T09:46:51.113Z,135
2016-08-24T09:47:51.079Z,130
2016-08-24T09:48:51.111Z,130
2016-08-24T09:49:51.037Z,130
2016-08-24T09:50:51.070Z,130
2016-08-24T09:51:51.062Z,130
2016-08-24T09:52:51.095Z,130
2016-08-24T09:53:51.065Z,130
2016-08-24T09:54:51.010Z,130
2016-08-24T09:55:51.050Z,130
2016-08-24T09:56:51.037Z,130
2016-08-24T09:57:51.074Z,130
2016-08-24T09:58:51.022Z,130
2016-08-24T09:59:51.021Z,130
2016-08-24T10:00:51.065Z,130
2016-08-24T10:01:51.041Z,130
2016-08-24T10:02:51.064Z,130
2016-08-24T10:03:51.070Z,130
2016-08-24T10:04:51.063Z,130
2016-08-24T10:05:51.055Z,130
2016-08-24T10:06:51.063Z,130
2016-08-24T10:07:51.054Z,130
2016-08-24T10:08:51.079Z,130
2016-08-24T10:09:51.069Z,130
2016-08-24T10:10:51.068Z,130
2016-08-24T10:11:51.122Z,130
2016-08-24T10:12:51.079Z,130
2016-08-24T10:13:51.170Z,130
2016-08-24T10:14:52.142Z,130
2016-08-24T10:15:51.095Z,130
2016-08-24T10:16:51.114Z,130
2016-08-24T10:17:51.141Z,130
2016-08-24T10:18:51.159Z,130
2016-08-24T10:19:51.080Z,130
2016-08-24T10:20:51.068Z,130
2016-08-24T10:21:51.111Z,130
2016-08-24T10:22:51.083Z,130
2016-08-24T10:23:51.217Z,130
2016-08-24T10:24:51.118Z,130
2016-08-24T10:25:51.215Z,130
2016-08-24T10:26:51.300Z,130
2016-08-24T10:27:51.230Z,130
2016-08-24T10:28:52.287Z,125
2016-08-24T10:29:51.697Z,125
2016-08-24T10:30:51.467Z,125
2016-08-24T10:31:51.125Z,125
2016-08-24T10:32:51.495Z,125
2016-08-24T10:33:51.077Z,125
2016-08-24T10:34:51.069Z,125
2016-08-24T10:35:51.112Z,125
2016-08-24T10:36:51.319Z,125
2016-08-24T10:37:51.172Z,125
2016-08-24T10:38:52.116Z,125
2016-08-24T10:39:51.096Z,125
2016-08-24T10:40:51.481Z,125
2016-08-24T10:41:51.071Z,125
2016-08-24T10:42:51.303Z,125
2016-08-24T10:43:51.228Z,125
2016-08-24T10:44:54.065Z,125
2016-08-24T10:45:51.869Z,125
2016-08-24T10:46:51.864Z,125
2016-08-24T10:47:51.138Z,125
2016-08-24T10:48:51.247Z,125
2016-08-24T10:49:51.833Z,125
2016-08-24T10:50:51.627Z,125
2016-08-24T10:51:51.079Z,125
2016-08-24T10:52:51.159Z,125
2016-08-24T10:53:51.546Z,125
2016-08-24T10:54:51.407Z,125
2016-08-24T10:55:51.149Z,125
2016-08-24T10:56:51.100Z,125
2016-08-24T10:57:52.086Z,125
2016-08-24T10:58:52.313Z,125
2016-08-24T10:59:51.251Z,125
2016-08-24T11:00:51.113Z,125
2016-08-24T11:01:51.222Z,125
2016-08-24T11:02:51.444Z,125
2016-08-24T11:03:52.861Z,125
2016-08-24T11:04:51.128Z,125
2016-08-24T11:05:52.579Z,125
2016-08-24T11:06:51.625Z,125
2016-08-24T11:07:51.226Z,125
2016-08-24T11:08:51.138Z,125
2016-08-24T11:09:52.828Z,125
2016-08-24T11:10:52.015Z,125
2016-08-24T11:11:51.426Z,125
2016-08-24T11:12:51.205Z,125
2016-08-24T11:13:51.292Z,125
2016-08-24T11:14:53.935Z,125
2016-08-24T11:15:51.959Z,125
2016-08-24T11:16:56.021Z,125
2016-08-24T11:17:51.949Z,125
2016-08-24T11:18:51.457Z,125
2016-08-24T11:19:52.030Z,125
2016-08-24T11:20:51.250Z,125
2016-08-24T11:21:51.179Z,125
2016-08-24T11:22:54.811Z,125
2016-08-24T11:23:52.443Z,125
2016-08-24T11:24:53.304Z,125
2016-08-24T11:25:54.262Z,125
2016-08-24T11:26:55.708Z,125
2016-08-24T11:27:52.210Z,125
2016-08-24T11:29:03.349Z,125
2016-08-24T11:29:57.078Z,125
2016-08-24T11:30:51.796Z,125
2016-08-24T11:32:06.251Z,125
2016-08-24T11:32:52.175Z,125
2016-08-24T11:33:52.116Z,125
2016-08-24T11:34:51.819Z,125
2016-08-24T11:35:51.407Z,125
2016-08-24T11:36:51.429Z,125
2016-08-24T11:37:51.234Z,125
2016-08-24T11:38:51.785Z,125
2016-08-24T11:39:51.804Z,125
2016-08-24T11:40:53.611Z,125
2016-08-24T11:41:51.733Z,125
2016-08-24T11:42:52.751Z,125
2016-08-24T11:43:53.156Z,125
2016-08-24T11:44:51.731Z,125
2016-08-24T11:45:56.148Z,125
2016-08-24T11:46:52.585Z,125
2016-08-24T11:47:53.040Z,125
2016-08-24T11:48:52.373Z,125
2016-08-24T11:49:52.505Z,125
2016-08-24T11:50:52.393Z,125
2016-08-24T11:51:51.251Z,125
2016-08-24T11:52:54.626Z,125
2016-08-24T11:53:53.963Z,125
2016-08-24T11:54:52.867Z,125
2016-08-24T11:55:57.303Z,125
2016-08-24T11:57:04.788Z,125
2016-08-24T11:57:58.547Z,125
2016-08-24T11:58:55.485Z,125
2016-08-24T11:59:54.660Z,125
2016-08-24T12:00:51.629Z,125
2016-08-24T12:01:53.827Z,125
2016-08-24T12:02:51.165Z,125
2016-08-24T12:03:52.961Z,125
2016-08-24T12:04:52.547Z,125
2016-08-24T12:05:52.053Z,125
2016-08-24T12:06:51.498Z,125
2016-08-24T12:07:51.889Z,125
2016-08-24T12:08:52.308Z,125
2016-08-24T12:09:52.960Z,125
2016-08-24T12:10:54.691Z,125
2016-08-24T12:11:56.148Z,125
2016-08-24T12:12:51.839Z,125
2016-08-24T12:13:51.372Z,125
2016-08-24T12:14:51.540Z,125
2016-08-24T12:15:51.842Z,125
2016-08-24T12:16:51.221Z,125
2016-08-24T12:17:51.242Z,125
2016-08-24T12:18:51.216Z,125
2016-08-24T12:19:51.210Z,125
2016-08-24T12:20:51.237Z,125
2016-08-24T12:21:51.283Z,125
2016-08-24T12:22:51.286Z,125
2016-08-24T12:23:51.208Z,125
2016-08-24T12:24:51.259Z,125
2016-08-24T12:25:51.222Z,125
2016-08-24T12:26:51.224Z,125
2016-08-24T12:27:51.313Z,125
2016-08-24T12:28:51.236Z,125
2016-08-24T12:29:51.271Z,125
2016-08-24T12:30:51.838Z,125
2016-08-24T12:31:51.285Z,125
2016-08-24T12:32:51.238Z,125
2016-08-24T12:33:51.382Z,125
2016-08-24T12:34:51.279Z,125
2016-08-24T12:35:51.838Z,125
2016-08-24T12:36:51.268Z,125
2016-08-24T12:37:51.229Z,125
2016-08-24T12:38:51.268Z,125
2016-08-24T12:39:51.223Z,125
2016-08-24T12:40:51.257Z,125
2016-08-24T12:41:51.208Z,125
2016-08-24T12:42:51.498Z,125
2016-08-24T12:43:51.223Z,125
2016-08-24T12:44:51.347Z,125
2016-08-24T12:45:51.280Z,125
2016-08-24T12:46:51.278Z,125
2016-08-24T12:47:51.279Z,125
2016-08-24T12:48:51.316Z,125
2016-08-24T12:49:51.331Z,125
2016-08-24T12:50:51.254Z,125
2016-08-24T12:51:51.293Z,125
2016-08-24T12:52:51.305Z,125
2016-08-24T12:53:51.254Z,125
2016-08-24T12:54:51.365Z,125
2016-08-24T12:55:51.300Z,130
2016-08-24T12:56:51.278Z,125
2016-08-24T12:57:51.351Z,125
2016-08-24T12:58:51.335Z,125
2016-08-24T12:59:51.257Z,125
2016-08-24T13:00:51.307Z,125
2016-08-24T13:01:51.290Z,125
2016-08-24T13:02:51.257Z,125
2016-08-24T13:03:51.270Z,125
2016-08-24T13:04:51.304Z,125
2016-08-24T13:05:51.306Z,125
2016-08-24T13:06:51.266Z,125
2016-08-24T13:07:51.265Z,125
2016-08-24T13:08:51.264Z,125
2016-08-24T13:09:51.262Z,120
2016-08-24T13:10:51.259Z,125
2016-08-24T13:11:51.238Z,125
2016-08-24T13:12:51.350Z,120
2016-08-24T13:13:51.287Z,120
2016-08-24T13:14:51.520Z,120
2016-08-24T13:15:51.301Z,120
2016-08-24T13:16:51.240Z,120
2016-08-24T13:17:51.307Z,120
2016-08-24T13:18:51.329Z,120
2016-08-24T13:19:51.377Z,120
2016-08-24T13:20:51.311Z,120
2016-08-24T13:21:51.341Z,120
2016-08-24T13:22:51.321Z,120
2016-08-24T13:23:51.398Z,120
2016-08-24T13:24:51.360Z,120
2016-08-24T13:25:51.301Z,120
2016-08-24T13:26:51.316Z,120
2016-08-24T13:27:51.761Z,120
2016-08-24T13:28:52.549Z,120
2016-08-24T13:29:52.226Z,120
2016-08-24T13:30:52.337Z,120
2016-08-24T13:31:51.259Z,120
2016-08-24T13:32:51.309Z,120
2016-08-24T13:33:51.315Z,120
2016-08-24T13:34:51.906Z,120
2016-08-24T13:35:51.271Z,120
2016-08-24T13:36:51.306Z,120
2016-08-24T13:37:51.285Z,120
2016-08-24T13:38:51.319Z,120
2016-08-24T13:39:52.046Z,120
2016-08-24T13:40:51.305Z,120
2016-08-24T13:41:51.355Z,120
2016-08-24T13:42:51.714Z,120
2016-08-24T13:43:51.339Z,120
2016-08-24T13:44:51.338Z,120
2016-08-24T13:45:51.854Z,120
2016-08-24T13:46:51.305Z,120
2016-08-24T13:47:51.406Z,120
2016-08-24T13:48:51.393Z,120
2016-08-24T13:49:51.427Z,120
2016-08-24T13:50:51.323Z,120
2016-08-24T13:51:51.441Z,120
2016-08-24T13:52:51.345Z,120
2016-08-24T13:53:51.366Z,120
2016-08-24T13:54:51.350Z,120
2016-08-24T13:55:51.335Z,120
2016-08-24T13:56:51.362Z,120
2016-08-24T13:57:51.362Z,120
2016-08-24T13:58:51.303Z,120
2016-08-24T13:59:51.323Z,120
2016-08-24T14:00:51.347Z,120
2016-08-24T14:01:51.347Z,120
2016-08-24T14:02:51.338Z,120
2016-08-24T14:03:51.468Z,120
2016-08-24T14:04:51.371Z,120
2016-08-24T14:05:51.337Z,120
2016-08-24T14:06:51.753Z,120
2016-08-24T14:07:51.350Z,120
2016-08-24T14:08:51.349Z,120
2016-08-24T14:09:51.741Z,120
2016-08-24T14:10:51.313Z,120
2016-08-24T14:11:51.367Z,120
2016-08-24T14:12:51.428Z,120
2016-08-24T14:13:51.332Z,120
2016-08-24T14:14:51.367Z,120
2016-08-24T14:15:51.376Z,120